Terminal Aerodrome Forecast
Issued by NWS

Home | Current Version | Previous Version | Text Only | Print | Product List | Glossary On
Versions: 1 2 3 4 5 6 7 8 9 10 11 12 13 14 15 16 17 18 19 20 21 22 23 24 25 26 27 28 29 30
775
FTUS46 KOTX 310527
TAFCOE
TAF
KCOE 310527Z 3106/0106 VRB03KT P6SM FEW100 SCT250
     FM311500 05008KT P6SM FEW250
     FM312100 34005KT P6SM FEW150 SCT250
     FM010400 07004KT P6SM SCT150 BKN200
      AMD LTD TO CLD AND VIS=

USA.gov is the U.S. government's official web portal to all federal, state and local government web resources and services.